Terminal Aerodrome Forecast
Issued by NWS

Home | Current Version | Previous Version | Graphics & Text | Print | Product List | Glossary Off
Versions: 1 2 3 4 5 6 7 8 9 10 11 12 13 14 15 16 17

707
FTUS43 KABR 291314 AAA
TAFATY
TAF AMD
KATY 291314Z 2913/3012 31016G23KT P6SM BKN025 BKN070
     FM291800 31018G25KT P6SM VCSH OVC035
     FM292200 31019G27KT P6SM BKN060
     FM300200 31013KT P6SM BKN090
     FM300500 30009KT P6SM SKC=

USA.gov is the U.S. government's official web portal to all federal, state and local government web resources and services.